sensor_id;sensor_type;location;lat;lon;timestamp;P1;durP1;ratioP1;P2;durP2;ratioP2
40433;SDS011;26146;51.114;5.654;2022-09-23T00:00:05;9.97;;;3.47;;
40433;SDS011;26146;51.114;5.654;2022-09-23T00:04:06;7.73;;;3.30;;
40433;SDS011;26146;51.114;5.654;2022-09-23T00:08:08;9.20;;;3.63;;
40433;SDS011;26146;51.114;5.654;2022-09-23T00:12:10;7.70;;;3.40;;
40433;SDS011;26146;51.114;5.654;2022-09-23T00:16:13;8.13;;;3.67;;
40433;SDS011;26146;51.114;5.654;2022-09-23T00:20:15;8.13;;;3.40;;
40433;SDS011;26146;51.114;5.654;2022-09-23T00:24:17;9.60;;;3.70;;
40433;SDS011;26146;51.114;5.654;2022-09-23T00:28:19;11.13;;;3.70;;
40433;SDS011;26146;51.114;5.654;2022-09-23T00:32:20;8.60;;;3.53;;
40433;SDS011;26146;51.114;5.654;2022-09-23T00:36:21;9.10;;;3.70;;
40433;SDS011;26146;51.114;5.654;2022-09-23T00:40:22;7.43;;;3.00;;
40433;SDS011;26146;51.114;5.654;2022-09-23T00:44:43;7.73;;;2.63;;
40433;SDS011;26146;51.114;5.654;2022-09-23T00:48:48;8.27;;;3.27;;
40433;SDS011;26146;51.114;5.654;2022-09-23T00:52:55;7.20;;;3.23;;
40433;SDS011;26146;51.114;5.654;2022-09-23T00:56:59;8.63;;;3.30;;
40433;SDS011;26146;51.114;5.654;2022-09-23T01:01:01;8.73;;;3.40;;
40433;SDS011;26146;51.114;5.654;2022-09-23T01:05:03;10.03;;;3.60;;
40433;SDS011;26146;51.114;5.654;2022-09-23T01:09:08;8.38;;;3.30;;
40433;SDS011;26146;51.114;5.654;2022-09-23T01:13:14;8.00;;;3.00;;
40433;SDS011;26146;51.114;5.654;2022-09-23T01:17:38;8.43;;;3.70;;
40433;SDS011;26146;51.114;5.654;2022-09-23T01:31:11;8.50;;;2.77;;
40433;SDS011;26146;51.114;5.654;2022-09-23T01:35:28;7.17;;;2.53;;
40433;SDS011;26146;51.114;5.654;2022-09-23T01:44:04;7.60;;;2.60;;
40433;SDS011;26146;51.114;5.654;2022-09-23T01:48:38;7.97;;;2.50;;
40433;SDS011;26146;51.114;5.654;2022-09-23T01:52:43;7.33;;;2.40;;
40433;SDS011;26146;51.114;5.654;2022-09-23T01:57:08;8.10;;;2.50;;
40433;SDS011;26146;51.114;5.654;2022-09-23T02:01:47;6.80;;;2.50;;
40433;SDS011;26146;51.114;5.654;2022-09-23T02:06:03;7.80;;;2.37;;
40433;SDS011;26146;51.114;5.654;2022-09-23T02:10:24;6.67;;;2.10;;
40433;SDS011;26146;51.114;5.654;2022-09-23T02:14:35;7.20;;;2.45;;
40433;SDS011;26146;51.114;5.654;2022-09-23T02:18:49;9.30;;;2.77;;
40433;SDS011;26146;51.114;5.654;2022-09-23T02:35:58;8.07;;;3.00;;
40433;SDS011;26146;51.114;5.654;2022-09-23T02:40:10;8.13;;;2.83;;
40433;SDS011;26146;51.114;5.654;2022-09-23T02:44:25;9.93;;;2.97;;
40433;SDS011;26146;51.114;5.654;2022-09-23T02:52:42;7.82;;;2.50;;
40433;SDS011;26146;51.114;5.654;2022-09-23T02:56:44;6.97;;;2.40;;
40433;SDS011;26146;51.114;5.654;2022-09-23T03:09:11;5.70;;;2.10;;
40433;SDS011;26146;51.114;5.654;2022-09-23T03:14:21;5.57;;;1.70;;
40433;SDS011;26146;51.114;5.654;2022-09-23T03:26:32;6.37;;;2.10;;
40433;SDS011;26146;51.114;5.654;2022-09-23T03:30:36;5.40;;;1.67;;
40433;SDS011;26146;51.114;5.654;2022-09-23T03:34:37;6.13;;;1.90;;
40433;SDS011;26146;51.114;5.654;2022-09-23T03:38:43;6.67;;;1.87;;
40433;SDS011;26146;51.114;5.654;2022-09-23T03:42:46;8.27;;;1.90;;
40433;SDS011;26146;51.114;5.654;2022-09-23T03:46:48;7.40;;;1.90;;
40433;SDS011;26146;51.114;5.654;2022-09-23T03:50:49;5.10;;;1.70;;
40433;SDS011;26146;51.114;5.654;2022-09-23T03:54:50;7.57;;;1.90;;
40433;SDS011;26146;51.114;5.654;2022-09-23T03:58:52;4.77;;;1.40;;
40433;SDS011;26146;51.114;5.654;2022-09-23T04:02:52;6.70;;;1.90;;
40433;SDS011;26146;51.114;5.654;2022-09-23T04:06:54;7.13;;;1.80;;
40433;SDS011;26146;51.114;5.654;2022-09-23T04:10:58;6.83;;;2.13;;
40433;SDS011;26146;51.114;5.654;2022-09-23T04:15:00;6.23;;;1.80;;
40433;SDS011;26146;51.114;5.654;2022-09-23T04:19:02;5.63;;;1.63;;
40433;SDS011;26146;51.114;5.654;2022-09-23T04:23:05;5.70;;;1.70;;
40433;SDS011;26146;51.114;5.654;2022-09-23T04:27:06;7.00;;;1.87;;
40433;SDS011;26146;51.114;5.654;2022-09-23T04:31:07;6.10;;;1.70;;
40433;SDS011;26146;51.114;5.654;2022-09-23T04:35:09;6.50;;;1.70;;
40433;SDS011;26146;51.114;5.654;2022-09-23T04:39:10;6.03;;;1.70;;
40433;SDS011;26146;51.114;5.654;2022-09-23T04:43:11;4.67;;;1.60;;
40433;SDS011;26146;51.114;5.654;2022-09-23T04:47:13;5.43;;;1.77;;
40433;SDS011;26146;51.114;5.654;2022-09-23T04:51:16;6.47;;;1.70;;
40433;SDS011;26146;51.114;5.654;2022-09-23T04:55:24;5.83;;;1.70;;
40433;SDS011;26146;51.114;5.654;2022-09-23T04:59:25;6.03;;;1.57;;
40433;SDS011;26146;51.114;5.654;2022-09-23T05:03:25;5.87;;;1.73;;
40433;SDS011;26146;51.114;5.654;2022-09-23T05:07:26;6.33;;;1.67;;
40433;SDS011;26146;51.114;5.654;2022-09-23T05:11:28;6.20;;;1.80;;
40433;SDS011;26146;51.114;5.654;2022-09-23T05:15:30;6.37;;;1.60;;
40433;SDS011;26146;51.114;5.654;2022-09-23T05:19:31;7.00;;;1.90;;
40433;SDS011;26146;51.114;5.654;2022-09-23T05:23:35;5.53;;;1.60;;
40433;SDS011;26146;51.114;5.654;2022-09-23T05:27:36;5.53;;;1.70;;
40433;SDS011;26146;51.114;5.654;2022-09-23T05:31:37;7.20;;;2.30;;
40433;SDS011;26146;51.114;5.654;2022-09-23T05:35:38;4.93;;;1.40;;
40433;SDS011;26146;51.114;5.654;2022-09-23T05:39:39;5.97;;;1.80;;
40433;SDS011;26146;51.114;5.654;2022-09-23T05:43:40;6.17;;;1.87;;
40433;SDS011;26146;51.114;5.654;2022-09-23T05:47:43;5.90;;;1.67;;
40433;SDS011;26146;51.114;5.654;2022-09-23T05:51:44;5.03;;;1.60;;
40433;SDS011;26146;51.114;5.654;2022-09-23T05:55:48;5.60;;;1.60;;
40433;SDS011;26146;51.114;5.654;2022-09-23T05:59:48;5.30;;;1.80;;
40433;SDS011;26146;51.114;5.654;2022-09-23T06:03:50;5.77;;;1.70;;
40433;SDS011;26146;51.114;5.654;2022-09-23T06:07:55;6.40;;;1.77;;
40433;SDS011;26146;51.114;5.654;2022-09-23T06:11:56;5.33;;;1.50;;
40433;SDS011;26146;51.114;5.654;2022-09-23T06:15:57;6.13;;;1.70;;
40433;SDS011;26146;51.114;5.654;2022-09-23T06:19:58;6.30;;;1.70;;
40433;SDS011;26146;51.114;5.654;2022-09-23T06:24:01;5.85;;;1.77;;
40433;SDS011;26146;51.114;5.654;2022-09-23T06:28:02;7.07;;;1.55;;
40433;SDS011;26146;51.114;5.654;2022-09-23T06:32:10;5.97;;;1.80;;
40433;SDS011;26146;51.114;5.654;2022-09-23T06:36:11;7.18;;;1.80;;
40433;SDS011;26146;51.114;5.654;2022-09-23T06:40:14;6.35;;;1.70;;
40433;SDS011;26146;51.114;5.654;2022-09-23T06:44:17;7.13;;;1.75;;
40433;SDS011;26146;51.114;5.654;2022-09-23T06:48:21;7.03;;;2.00;;
40433;SDS011;26146;51.114;5.654;2022-09-23T06:52:25;5.82;;;1.70;;
40433;SDS011;26146;51.114;5.654;2022-09-23T06:56:27;5.70;;;1.90;;
40433;SDS011;26146;51.114;5.654;2022-09-23T07:00:33;6.18;;;2.05;;
40433;SDS011;26146;51.114;5.654;2022-09-23T07:04:36;6.35;;;1.67;;
40433;SDS011;26146;51.114;5.654;2022-09-23T07:08:37;6.90;;;2.10;;
40433;SDS011;26146;51.114;5.654;2022-09-23T07:12:41;8.43;;;2.00;;
40433;SDS011;26146;51.114;5.654;2022-09-23T07:16:42;6.65;;;1.90;;
40433;SDS011;26146;51.114;5.654;2022-09-23T07:20:43;8.02;;;2.17;;
40433;SDS011;26146;51.114;5.654;2022-09-23T07:24:45;6.82;;;1.55;;
40433;SDS011;26146;51.114;5.654;2022-09-23T07:28:46;7.57;;;1.98;;
40433;SDS011;26146;51.114;5.654;2022-09-23T07:36:52;6.35;;;1.70;;
40433;SDS011;26146;51.114;5.654;2022-09-23T07:40:58;7.72;;;2.00;;
40433;SDS011;26146;51.114;5.654;2022-09-23T07:45:01;7.45;;;1.70;;
40433;SDS011;26146;51.114;5.654;2022-09-23T07:49:02;8.65;;;1.88;;
40433;SDS011;26146;51.114;5.654;2022-09-23T07:53:04;6.30;;;1.77;;
40433;SDS011;26146;51.114;5.654;2022-09-23T07:57:05;6.50;;;1.90;;
40433;SDS011;26146;51.114;5.654;2022-09-23T08:01:07;8.07;;;2.17;;
40433;SDS011;26146;51.114;5.654;2022-09-23T08:05:11;5.63;;;1.73;;
40433;SDS011;26146;51.114;5.654;2022-09-23T08:09:12;6.60;;;1.70;;
40433;SDS011;26146;51.114;5.654;2022-09-23T08:13:14;6.05;;;1.77;;
40433;SDS011;26146;51.114;5.654;2022-09-23T08:17:14;8.27;;;1.83;;
40433;SDS011;26146;51.114;5.654;2022-09-23T08:21:19;6.05;;;1.80;;
40433;SDS011;26146;51.114;5.654;2022-09-23T08:29:23;8.00;;;2.00;;
40433;SDS011;26146;51.114;5.654;2022-09-23T08:33:25;6.70;;;1.80;;
40433;SDS011;26146;51.114;5.654;2022-09-23T08:37:26;7.50;;;1.92;;
40433;SDS011;26146;51.114;5.654;2022-09-23T08:41:34;7.43;;;1.95;;
40433;SDS011;26146;51.114;5.654;2022-09-23T08:45:53;7.68;;;1.77;;
40433;SDS011;26146;51.114;5.654;2022-09-23T08:50:05;6.93;;;1.90;;
40433;SDS011;26146;51.114;5.654;2022-09-23T08:54:13;6.45;;;1.80;;
40433;SDS011;26146;51.114;5.654;2022-09-23T09:02:39;7.68;;;1.90;;
40433;SDS011;26146;51.114;5.654;2022-09-23T09:06:50;5.90;;;1.70;;
40433;SDS011;26146;51.114;5.654;2022-09-23T09:11:01;8.93;;;1.90;;
40433;SDS011;26146;51.114;5.654;2022-09-23T09:15:06;5.80;;;1.58;;
40433;SDS011;26146;51.114;5.654;2022-09-23T09:19:14;8.38;;;1.80;;
40433;SDS011;26146;51.114;5.654;2022-09-23T09:23:25;7.72;;;1.80;;
40433;SDS011;26146;51.114;5.654;2022-09-23T09:27:34;6.82;;;1.70;;
40433;SDS011;26146;51.114;5.654;2022-09-23T09:31:46;7.00;;;1.55;;
40433;SDS011;26146;51.114;5.654;2022-09-23T09:35:53;7.53;;;1.63;;
40433;SDS011;26146;51.114;5.654;2022-09-23T09:40:10;6.72;;;1.85;;
40433;SDS011;26146;51.114;5.654;2022-09-23T09:44:21;8.40;;;1.70;;
40433;SDS011;26146;51.114;5.654;2022-09-23T09:49:41;6.68;;;1.50;;
40433;SDS011;26146;51.114;5.654;2022-09-23T09:53:49;5.80;;;1.60;;
40433;SDS011;26146;51.114;5.654;2022-09-23T09:57:57;5.28;;;1.27;;
40433;SDS011;26146;51.114;5.654;2022-09-23T10:02:24;5.22;;;1.40;;
40433;SDS011;26146;51.114;5.654;2022-09-23T10:06:33;6.93;;;1.70;;
40433;SDS011;26146;51.114;5.654;2022-09-23T10:10:35;7.63;;;1.98;;
40433;SDS011;26146;51.114;5.654;2022-09-23T10:14:36;7.22;;;1.77;;
40433;SDS011;26146;51.114;5.654;2022-09-23T10:22:46;8.50;;;1.67;;
40433;SDS011;26146;51.114;5.654;2022-09-23T10:26:55;6.55;;;1.35;;
40433;SDS011;26146;51.114;5.654;2022-09-23T10:31:08;5.88;;;1.33;;
40433;SDS011;26146;51.114;5.654;2022-09-23T10:35:18;4.75;;;1.10;;
40433;SDS011;26146;51.114;5.654;2022-09-23T10:39:23;6.65;;;1.50;;
40433;SDS011;26146;51.114;5.654;2022-09-23T10:56:45;5.43;;;1.20;;
40433;SDS011;26146;51.114;5.654;2022-09-23T11:05:29;6.38;;;1.05;;
40433;SDS011;26146;51.114;5.654;2022-09-23T11:14:14;4.75;;;1.30;;
40433;SDS011;26146;51.114;5.654;2022-09-23T11:27:22;5.28;;;1.08;;
40433;SDS011;26146;51.114;5.654;2022-09-23T11:35:50;4.82;;;1.30;;
40433;SDS011;26146;51.114;5.654;2022-09-23T11:39:59;5.95;;;0.98;;
40433;SDS011;26146;51.114;5.654;2022-09-23T11:52:53;6.07;;;0.93;;
40433;SDS011;26146;51.114;5.654;2022-09-23T11:57:02;4.80;;;0.90;;
40433;SDS011;26146;51.114;5.654;2022-09-23T12:01:13;4.65;;;0.85;;
40433;SDS011;26146;51.114;5.654;2022-09-23T12:05:26;6.00;;;1.25;;
40433;SDS011;26146;51.114;5.654;2022-09-23T12:09:36;5.28;;;1.00;;
40433;SDS011;26146;51.114;5.654;2022-09-23T12:14:11;6.18;;;1.30;;
40433;SDS011;26146;51.114;5.654;2022-09-23T12:18:27;6.18;;;1.30;;
40433;SDS011;26146;51.114;5.654;2022-09-23T12:26:45;5.73;;;1.27;;
40433;SDS011;26146;51.114;5.654;2022-09-23T12:30:59;6.38;;;1.45;;
40433;SDS011;26146;51.114;5.654;2022-09-23T12:35:02;7.30;;;1.23;;
40433;SDS011;26146;51.114;5.654;2022-09-23T12:39:13;6.70;;;1.10;;
40433;SDS011;26146;51.114;5.654;2022-09-23T12:47:38;5.35;;;1.15;;
40433;SDS011;26146;51.114;5.654;2022-09-23T12:51:39;7.38;;;1.55;;
40433;SDS011;26146;51.114;5.654;2022-09-23T12:56:14;4.57;;;0.90;;
40433;SDS011;26146;51.114;5.654;2022-09-23T13:00:42;5.28;;;1.10;;
40433;SDS011;26146;51.114;5.654;2022-09-23T13:09:27;6.20;;;1.20;;
40433;SDS011;26146;51.114;5.654;2022-09-23T13:13:39;5.78;;;1.10;;
40433;SDS011;26146;51.114;5.654;2022-09-23T13:17:42;5.07;;;1.00;;
40433;SDS011;26146;51.114;5.654;2022-09-23T13:25:45;5.53;;;1.08;;
40433;SDS011;26146;51.114;5.654;2022-09-23T13:29:49;6.22;;;1.40;;
40433;SDS011;26146;51.114;5.654;2022-09-23T13:34:05;6.93;;;1.38;;
40433;SDS011;26146;51.114;5.654;2022-09-23T13:42:27;6.53;;;1.33;;
40433;SDS011;26146;51.114;5.654;2022-09-23T13:46:34;8.05;;;1.30;;
40433;SDS011;26146;51.114;5.654;2022-09-23T13:50:43;5.18;;;1.40;;
40433;SDS011;26146;51.114;5.654;2022-09-23T13:54:48;5.60;;;1.25;;
40433;SDS011;26146;51.114;5.654;2022-09-23T13:58:52;8.63;;;2.40;;
40433;SDS011;26146;51.114;5.654;2022-09-23T14:03:23;6.35;;;1.70;;
40433;SDS011;26146;51.114;5.654;2022-09-23T14:07:25;7.00;;;1.60;;
40433;SDS011;26146;51.114;5.654;2022-09-23T14:11:30;4.90;;;1.40;;
40433;SDS011;26146;51.114;5.654;2022-09-23T14:15:34;7.32;;;1.80;;
40433;SDS011;26146;51.114;5.654;2022-09-23T14:19:38;4.88;;;1.35;;
40433;SDS011;26146;51.114;5.654;2022-09-23T14:23:45;8.45;;;1.58;;
40433;SDS011;26146;51.114;5.654;2022-09-23T14:27:46;8.87;;;2.20;;
40433;SDS011;26146;51.114;5.654;2022-09-23T14:31:57;6.70;;;1.60;;
40433;SDS011;26146;51.114;5.654;2022-09-23T14:36:10;12.00;;;2.90;;
40433;SDS011;26146;51.114;5.654;2022-09-23T14:40:34;6.57;;;1.85;;
40433;SDS011;26146;51.114;5.654;2022-09-23T14:44:37;5.90;;;1.80;;
40433;SDS011;26146;51.114;5.654;2022-09-23T14:48:39;9.57;;;1.90;;
40433;SDS011;26146;51.114;5.654;2022-09-23T14:52:47;7.28;;;1.90;;
40433;SDS011;26146;51.114;5.654;2022-09-23T14:56:51;8.10;;;2.13;;
40433;SDS011;26146;51.114;5.654;2022-09-23T15:00:54;8.77;;;1.77;;
40433;SDS011;26146;51.114;5.654;2022-09-23T15:05:14;8.27;;;1.98;;
40433;SDS011;26146;51.114;5.654;2022-09-23T15:09:21;6.60;;;1.70;;
40433;SDS011;26146;51.114;5.654;2022-09-23T15:13:27;7.70;;;1.70;;
40433;SDS011;26146;51.114;5.654;2022-09-23T15:17:34;6.83;;;1.60;;
40433;SDS011;26146;51.114;5.654;2022-09-23T15:21:41;8.63;;;2.30;;
40433;SDS011;26146;51.114;5.654;2022-09-23T15:25:44;6.60;;;1.77;;
40433;SDS011;26146;51.114;5.654;2022-09-23T15:29:50;10.95;;;2.28;;
40433;SDS011;26146;51.114;5.654;2022-09-23T15:33:58;9.90;;;2.90;;
40433;SDS011;26146;51.114;5.654;2022-09-23T15:37:59;10.68;;;2.78;;
40433;SDS011;26146;51.114;5.654;2022-09-23T15:42:02;9.23;;;2.00;;
40433;SDS011;26146;51.114;5.654;2022-09-23T15:46:07;8.30;;;2.10;;
40433;SDS011;26146;51.114;5.654;2022-09-23T15:50:19;10.23;;;2.20;;
40433;SDS011;26146;51.114;5.654;2022-09-23T15:54:20;8.45;;;2.00;;
40433;SDS011;26146;51.114;5.654;2022-09-23T15:58:21;6.90;;;2.00;;
40433;SDS011;26146;51.114;5.654;2022-09-23T16:02:24;7.70;;;2.00;;
40433;SDS011;26146;51.114;5.654;2022-09-23T16:06:25;8.23;;;2.88;;
40433;SDS011;26146;51.114;5.654;2022-09-23T16:10:27;10.00;;;2.45;;
40433;SDS011;26146;51.114;5.654;2022-09-23T16:14:30;8.43;;;2.00;;
40433;SDS011;26146;51.114;5.654;2022-09-23T16:18:31;22.65;;;10.50;;
40433;SDS011;26146;51.114;5.654;2022-09-23T16:22:35;12.98;;;6.07;;
40433;SDS011;26146;51.114;5.654;2022-09-23T16:26:36;21.20;;;13.73;;
40433;SDS011;26146;51.114;5.654;2022-09-23T16:30:39;24.67;;;13.38;;
40433;SDS011;26146;51.114;5.654;2022-09-23T16:34:40;23.13;;;14.90;;
40433;SDS011;26146;51.114;5.654;2022-09-23T16:38:41;11.30;;;5.75;;
40433;SDS011;26146;51.114;5.654;2022-09-23T16:42:42;12.85;;;5.20;;
40433;SDS011;26146;51.114;5.654;2022-09-23T16:46:45;9.25;;;3.58;;
40433;SDS011;26146;51.114;5.654;2022-09-23T16:50:46;9.00;;;3.08;;
40433;SDS011;26146;51.114;5.654;2022-09-23T16:54:47;7.65;;;3.10;;
40433;SDS011;26146;51.114;5.654;2022-09-23T16:58:49;9.30;;;3.15;;
40433;SDS011;26146;51.114;5.654;2022-09-23T17:02:50;8.75;;;3.28;;
40433;SDS011;26146;51.114;5.654;2022-09-23T17:07:12;8.63;;;3.17;;
40433;SDS011;26146;51.114;5.654;2022-09-23T17:11:16;9.30;;;2.88;;
40433;SDS011;26146;51.114;5.654;2022-09-23T17:15:19;7.28;;;2.58;;
40433;SDS011;26146;51.114;5.654;2022-09-23T17:19:21;9.00;;;3.13;;
40433;SDS011;26146;51.114;5.654;2022-09-23T17:23:22;11.50;;;3.88;;
40433;SDS011;26146;51.114;5.654;2022-09-23T17:27:31;20.45;;;9.65;;
40433;SDS011;26146;51.114;5.654;2022-09-23T17:31:32;13.52;;;5.82;;
40433;SDS011;26146;51.114;5.654;2022-09-23T17:35:33;12.63;;;4.40;;
40433;SDS011;26146;51.114;5.654;2022-09-23T17:39:34;12.10;;;4.10;;
40433;SDS011;26146;51.114;5.654;2022-09-23T17:43:44;10.90;;;3.70;;
40433;SDS011;26146;51.114;5.654;2022-09-23T17:47:50;9.53;;;4.00;;
40433;SDS011;26146;51.114;5.654;2022-09-23T17:51:54;11.00;;;4.22;;
40433;SDS011;26146;51.114;5.654;2022-09-23T17:59:58;10.88;;;3.97;;
40433;SDS011;26146;51.114;5.654;2022-09-23T18:04:05;11.00;;;3.58;;
40433;SDS011;26146;51.114;5.654;2022-09-23T18:08:06;11.13;;;3.80;;
40433;SDS011;26146;51.114;5.654;2022-09-23T18:12:07;9.95;;;4.25;;
40433;SDS011;26146;51.114;5.654;2022-09-23T18:16:11;11.80;;;5.28;;
40433;SDS011;26146;51.114;5.654;2022-09-23T18:20:12;14.60;;;7.22;;
40433;SDS011;26146;51.114;5.654;2022-09-23T18:24:13;16.20;;;7.25;;
40433;SDS011;26146;51.114;5.654;2022-09-23T18:28:14;25.60;;;14.35;;
40433;SDS011;26146;51.114;5.654;2022-09-23T18:32:15;14.98;;;7.00;;
40433;SDS011;26146;51.114;5.654;2022-09-23T18:36:16;13.45;;;6.47;;
40433;SDS011;26146;51.114;5.654;2022-09-23T18:40:17;71.15;;;27.00;;
40433;SDS011;26146;51.114;5.654;2022-09-23T18:44:18;12.57;;;5.60;;
40433;SDS011;26146;51.114;5.654;2022-09-23T18:48:22;10.90;;;4.00;;
40433;SDS011;26146;51.114;5.654;2022-09-23T18:52:42;7.90;;;3.50;;
40433;SDS011;26146;51.114;5.654;2022-09-23T18:56:43;8.82;;;3.42;;
40433;SDS011;26146;51.114;5.654;2022-09-23T19:00:45;10.40;;;3.72;;
40433;SDS011;26146;51.114;5.654;2022-09-23T19:04:49;11.93;;;4.10;;
40433;SDS011;26146;51.114;5.654;2022-09-23T19:08:52;11.40;;;4.03;;
40433;SDS011;26146;51.114;5.654;2022-09-23T19:12:54;11.50;;;4.22;;
40433;SDS011;26146;51.114;5.654;2022-09-23T19:16:55;14.35;;;4.95;;
40433;SDS011;26146;51.114;5.654;2022-09-23T19:20:58;16.58;;;8.90;;
40433;SDS011;26146;51.114;5.654;2022-09-23T19:25:02;19.63;;;10.37;;
40433;SDS011;26146;51.114;5.654;2022-09-23T19:29:04;15.65;;;7.10;;
40433;SDS011;26146;51.114;5.654;2022-09-23T19:33:08;11.27;;;4.43;;
40433;SDS011;26146;51.114;5.654;2022-09-23T19:37:09;13.25;;;4.25;;
40433;SDS011;26146;51.114;5.654;2022-09-23T19:41:10;10.93;;;4.40;;
40433;SDS011;26146;51.114;5.654;2022-09-23T19:45:11;12.18;;;5.10;;
40433;SDS011;26146;51.114;5.654;2022-09-23T19:49:12;12.55;;;5.00;;
40433;SDS011;26146;51.114;5.654;2022-09-23T19:53:13;13.60;;;5.40;;
40433;SDS011;26146;51.114;5.654;2022-09-23T19:57:14;11.18;;;5.43;;
40433;SDS011;26146;51.114;5.654;2022-09-23T20:01:19;14.50;;;5.83;;
40433;SDS011;26146;51.114;5.654;2022-09-23T20:09:27;11.38;;;5.43;;
40433;SDS011;26146;51.114;5.654;2022-09-23T20:13:28;12.85;;;5.75;;
40433;SDS011;26146;51.114;5.654;2022-09-23T20:17:29;12.63;;;5.93;;
40433;SDS011;26146;51.114;5.654;2022-09-23T20:21:33;12.27;;;6.57;;
40433;SDS011;26146;51.114;5.654;2022-09-23T20:25:34;13.52;;;6.57;;
40433;SDS011;26146;51.114;5.654;2022-09-23T20:30:05;15.38;;;7.57;;
40433;SDS011;26146;51.114;5.654;2022-09-23T20:34:07;15.45;;;7.50;;
40433;SDS011;26146;51.114;5.654;2022-09-23T20:38:09;14.93;;;7.90;;
40433;SDS011;26146;51.114;5.654;2022-09-23T20:42:13;15.10;;;7.07;;
40433;SDS011;26146;51.114;5.654;2022-09-23T20:46:15;13.45;;;7.28;;
40433;SDS011;26146;51.114;5.654;2022-09-23T20:50:19;13.88;;;6.97;;
40433;SDS011;26146;51.114;5.654;2022-09-23T20:54:20;12.02;;;6.82;;
40433;SDS011;26146;51.114;5.654;2022-09-23T20:58:27;13.02;;;7.05;;
40433;SDS011;26146;51.114;5.654;2022-09-23T21:02:29;13.10;;;6.65;;
40433;SDS011;26146;51.114;5.654;2022-09-23T21:06:32;15.07;;;7.03;;
40433;SDS011;26146;51.114;5.654;2022-09-23T21:10:34;12.18;;;6.90;;
40433;SDS011;26146;51.114;5.654;2022-09-23T21:14:37;14.35;;;7.25;;
40433;SDS011;26146;51.114;5.654;2022-09-23T21:18:38;13.85;;;7.00;;
40433;SDS011;26146;51.114;5.654;2022-09-23T21:22:42;12.23;;;7.00;;
40433;SDS011;26146;51.114;5.654;2022-09-23T21:26:43;12.00;;;6.43;;
40433;SDS011;26146;51.114;5.654;2022-09-23T21:30:46;14.15;;;6.65;;
40433;SDS011;26146;51.114;5.654;2022-09-23T21:34:47;12.68;;;6.35;;
40433;SDS011;26146;51.114;5.654;2022-09-23T21:38:48;13.77;;;6.85;;
40433;SDS011;26146;51.114;5.654;2022-09-23T21:42:49;12.18;;;6.78;;
40433;SDS011;26146;51.114;5.654;2022-09-23T21:46:51;13.88;;;6.90;;
40433;SDS011;26146;51.114;5.654;2022-09-23T21:50:54;12.40;;;7.32;;
40433;SDS011;26146;51.114;5.654;2022-09-23T21:58:59;15.30;;;8.57;;
40433;SDS011;26146;51.114;5.654;2022-09-23T22:03:03;14.90;;;8.25;;
40433;SDS011;26146;51.114;5.654;2022-09-23T22:07:06;15.13;;;7.63;;
40433;SDS011;26146;51.114;5.654;2022-09-23T22:11:10;14.82;;;7.32;;
40433;SDS011;26146;51.114;5.654;2022-09-23T22:15:32;12.52;;;7.35;;
40433;SDS011;26146;51.114;5.654;2022-09-23T22:19:36;14.43;;;7.50;;
40433;SDS011;26146;51.114;5.654;2022-09-23T22:23:38;14.63;;;8.10;;
40433;SDS011;26146;51.114;5.654;2022-09-23T22:27:42;13.45;;;7.90;;
40433;SDS011;26146;51.114;5.654;2022-09-23T22:32:03;15.63;;;8.07;;
40433;SDS011;26146;51.114;5.654;2022-09-23T22:36:26;14.05;;;8.43;;
40433;SDS011;26146;51.114;5.654;2022-09-23T22:40:27;14.05;;;7.95;;
40433;SDS011;26146;51.114;5.654;2022-09-23T22:44:28;15.45;;;7.85;;
40433;SDS011;26146;51.114;5.654;2022-09-23T22:48:30;14.70;;;7.95;;
40433;SDS011;26146;51.114;5.654;2022-09-23T22:52:31;15.00;;;8.30;;
40433;SDS011;26146;51.114;5.654;2022-09-23T22:56:35;15.13;;;8.10;;
40433;SDS011;26146;51.114;5.654;2022-09-23T23:00:36;16.58;;;8.18;;
40433;SDS011;26146;51.114;5.654;2022-09-23T23:04:37;14.00;;;8.00;;
40433;SDS011;26146;51.114;5.654;2022-09-23T23:08:38;15.88;;;8.80;;
40433;SDS011;26146;51.114;5.654;2022-09-23T23:12:42;16.67;;;8.65;;
40433;SDS011;26146;51.114;5.654;2022-09-23T23:16:52;14.90;;;9.02;;
40433;SDS011;26146;51.114;5.654;2022-09-23T23:21:03;17.77;;;9.97;;
40433;SDS011;26146;51.114;5.654;2022-09-23T23:25:18;16.20;;;9.32;;
40433;SDS011;26146;51.114;5.654;2022-09-23T23:29:22;19.70;;;10.48;;
40433;SDS011;26146;51.114;5.654;2022-09-23T23:33:23;18.65;;;10.95;;
40433;SDS011;26146;51.114;5.654;2022-09-23T23:37:24;19.73;;;11.63;;
40433;SDS011;26146;51.114;5.654;2022-09-23T23:41:24;18.80;;;11.65;;
40433;SDS011;26146;51.114;5.654;2022-09-23T23:45:26;20.25;;;11.90;;
40433;SDS011;26146;51.114;5.654;2022-09-23T23:49:28;18.05;;;11.07;;
40433;SDS011;26146;51.114;5.654;2022-09-23T23:53:34;18.20;;;10.88;;
40433;SDS011;26146;51.114;5.654;2022-09-23T23:57:39;17.75;;;10.85;;
